createdAt,value
2017-11-09T00:13:25.974Z,86.62
2017-11-09T00:15:51.744Z,86.05
2017-11-09T00:18:45.330Z,86.10
2017-11-09T00:21:42.274Z,85.62
2017-11-09T00:40:58.681Z,84.77
2017-11-09T01:00:10.935Z,85.29
2017-11-09T01:02:59.888Z,85.48
2017-11-09T01:05:56.964Z,85.60
2017-11-09T01:08:54.331Z,85.13
2017-11-09T01:11:52.017Z,85.38
2017-11-09T01:14:49.849Z,85.38
2017-11-09T01:23:58.261Z,85.31
2017-11-09T01:26:47.397Z,85.80
2017-11-09T01:29:44.449Z,86.03
2017-11-09T01:32:42.306Z,87.19
2017-11-09T01:35:39.331Z,87.92
2017-11-09T01:38:37.140Z,87.62
2017-11-09T01:41:34.224Z,87.21
2017-11-09T01:44:31.334Z,87.05
2017-11-09T01:46:57.133Z,86.89
2017-11-09T01:49:46.671Z,86.69
2017-11-09T02:08:58.825Z,85.67
2017-11-09T02:11:47.905Z,85.82
2017-11-09T02:14:44.917Z,85.55
2017-11-09T02:30:35.467Z,85.75
2017-11-09T02:33:24.357Z,85.67
2017-11-09T02:36:21.396Z,85.77
2017-11-09T02:39:19.459Z,86.08
2017-11-09T02:42:17.307Z,85.69
2017-11-09T02:52:07.278Z,86.02
2017-11-09T03:11:43.090Z,85.95
2017-11-09T03:14:08.849Z,86.31
2017-11-09T03:33:48.099Z,86.35
2017-11-09T03:36:13.865Z,86.24
2017-11-09T03:39:03.376Z,85.54
2017-11-09T03:42:01.347Z,85.32
2017-11-09T03:44:58.328Z,85.09
2017-11-09T03:47:55.472Z,85.70
2017-11-09T03:57:45.988Z,86.58
2017-11-09T04:00:35.132Z,86.87
2017-11-09T04:03:32.077Z,86.60
2017-11-09T04:06:29.124Z,86.02
2017-11-09T04:09:26.157Z,85.96
2017-11-09T04:12:23.291Z,85.87
2017-11-09T04:15:20.337Z,85.87
2017-11-09T04:18:17.278Z,85.71
2017-11-09T04:20:43.044Z,85.45
2017-11-09T04:23:32.843Z,85.55
2017-11-09T04:26:29.871Z,85.98
2017-11-09T04:29:26.839Z,85.82
2017-11-09T04:42:13.595Z,86.36
2017-11-09T04:45:03.288Z,86.40
2017-11-09T04:48:01.038Z,86.19
2017-11-09T05:07:09.398Z,86.45
2017-11-09T05:26:22.579Z,86.01
2017-11-09T05:29:12.283Z,85.81
2017-11-09T05:32:09.415Z,85.70
2017-11-09T05:47:59.936Z,86.35
2017-11-09T05:50:48.855Z,86.40
2017-11-09T05:53:45.998Z,85.92
2017-11-09T05:56:43.984Z,85.76
2017-11-09T05:59:41.397Z,85.57
2017-11-09T06:09:32.578Z,86.05
2017-11-09T06:12:22.367Z,86.32
2017-11-09T06:35:01.926Z,86.89
2017-11-09T06:54:14.619Z,88.57
2017-11-09T07:13:51.271Z,88.21
2017-11-09T07:16:17.070Z,88.84
2017-11-09T07:19:06.445Z,88.86
2017-11-09T07:38:18.633Z,88.64
2017-11-09T07:41:07.644Z,88.37
2017-11-09T08:00:21.309Z,88.03
2017-11-09T08:19:56.940Z,87.36
2017-11-09T08:39:07.948Z,85.70
2017-11-09T08:42:04.883Z,86.44
2017-11-09T08:44:30.652Z,86.99
2017-11-09T08:47:20.297Z,87.00
2017-11-09T08:50:17.509Z,86.67
2017-11-09T08:53:15.564Z,86.50
2017-11-09T09:06:00.596Z,84.98
2017-11-09T09:25:37.336Z,84.75
2017-11-09T09:28:03.199Z,84.76
2017-11-09T09:47:38.549Z,84.56
2017-11-09T09:50:04.348Z,84.83
2017-11-09T09:52:54.201Z,84.87
2017-11-09T09:55:50.921Z,84.64
2017-11-09T10:11:40.812Z,84.31
2017-11-09T10:14:29.816Z,83.68
2017-11-09T10:17:27.536Z,84.40
2017-11-09T10:20:24.357Z,83.45
2017-11-09T10:23:21.453Z,83.83
2017-11-09T10:26:18.440Z,82.73
2017-11-09T10:29:16.244Z,83.13
2017-11-09T10:32:13.137Z,84.04
2017-11-09T10:34:39.879Z,83.84
2017-11-09T10:37:28.970Z,83.67
2017-11-09T10:56:40.276Z,83.94
2017-11-09T10:59:29.603Z,83.63
2017-11-09T11:18:42.081Z,82.88
2017-11-09T11:38:18.081Z,83.77
2017-11-09T11:40:43.890Z,84.04
2017-11-09T12:00:19.012Z,82.32
2017-11-09T12:02:44.811Z,82.41
2017-11-09T12:05:34.299Z,81.94
2017-11-09T12:08:31.441Z,82.03
2017-11-09T12:24:23.237Z,82.44
2017-11-09T12:27:12.317Z,83.46
2017-11-09T12:30:09.513Z,83.63
2017-11-09T12:49:21.610Z,84.14
2017-11-09T13:08:34.241Z,83.13
2017-11-09T13:11:23.468Z,82.57
2017-11-09T13:30:36.008Z,83.35
2017-11-09T13:50:12.781Z,84.21
2017-11-09T13:52:38.540Z,84.26
2017-11-09T13:55:27.664Z,84.20
2017-11-09T13:58:24.725Z,84.10
2017-11-09T14:01:21.799Z,83.48
2017-11-09T14:04:19.472Z,83.19
2017-11-09T14:07:17.064Z,83.23
2017-11-09T14:10:14.169Z,82.95
2017-11-09T14:13:11.521Z,83.46
2017-11-09T14:15:37.371Z,83.77
2017-11-09T14:18:26.904Z,83.30
2017-11-09T14:21:24.857Z,83.40
2017-11-09T14:24:22.610Z,83.38
2017-11-09T14:27:19.325Z,83.16
2017-11-09T14:30:16.484Z,83.31
2017-11-09T14:33:14.437Z,83.52
2017-11-09T14:39:01.177Z,83.73
2017-11-09T14:41:50.931Z,84.22
2017-11-09T14:44:48.069Z,83.93
2017-11-09T14:47:45.198Z,84.50
2017-11-09T15:00:29.428Z,85.16
2017-11-09T15:03:19.016Z,84.72
2017-11-09T15:06:16.874Z,84.84
2017-11-09T15:09:14.026Z,84.72
2017-11-09T15:12:11.834Z,84.30
2017-11-09T15:22:01.786Z,83.84
2017-11-09T15:24:53.056Z,84.15
2017-11-09T15:44:04.468Z,84.89
2017-11-09T15:46:53.502Z,85.18
2017-11-09T16:06:06.104Z,85.01
2017-11-09T16:08:55.863Z,85.30
2017-11-09T16:28:08.968Z,85.63
2017-11-09T16:48:02.143Z,86.09
2017-11-09T17:07:18.921Z,88.32
2017-11-09T17:10:16.807Z,88.23
2017-11-09T17:29:29.376Z,87.15
2017-11-09T17:48:40.920Z,85.65
2017-11-09T17:51:38.070Z,85.66
2017-11-09T17:54:35.724Z,85.45
2017-11-09T18:13:45.843Z,84.99
2017-11-09T18:16:43.828Z,85.45
2017-11-09T18:19:09.603Z,85.82
2017-11-09T18:21:58.816Z,85.54
2017-11-09T18:24:57.157Z,85.27
2017-11-09T18:27:54.306Z,85.35
2017-11-09T18:40:38.815Z,85.18
2017-11-09T18:43:28.464Z,85.89
2017-11-09T18:46:25.536Z,85.83
2017-11-09T19:02:15.756Z,86.46
2017-11-09T19:22:05.580Z,86.51
2017-11-09T19:24:31.347Z,86.26
2017-11-09T19:27:21.144Z,86.53
2017-11-09T19:30:18.228Z,85.78
2017-11-09T19:46:09.076Z,86.34
2017-11-09T19:48:58.219Z,86.32
2017-11-09T19:51:55.668Z,86.55
2017-11-09T19:54:52.694Z,86.77
2017-11-09T20:07:40.393Z,85.75
2017-11-09T20:10:30.188Z,85.70
2017-11-09T20:13:27.500Z,85.53
2017-11-09T20:32:38.560Z,86.55
2017-11-09T20:51:51.744Z,86.15
2017-11-09T20:54:40.825Z,86.23
2017-11-09T20:57:37.957Z,85.63
2017-11-09T21:00:35.082Z,85.19
2017-11-09T21:03:32.137Z,85.02
2017-11-09T21:13:22.476Z,85.71
2017-11-09T21:32:59.529Z,84.92
2017-11-09T21:52:17.441Z,85.00
2017-11-09T21:55:14.685Z,85.33
2017-11-09T21:57:40.492Z,85.29
2017-11-09T22:00:29.518Z,85.30
2017-11-09T22:19:42.452Z,84.85
2017-11-09T22:39:18.247Z,85.56
2017-11-09T22:41:44.027Z,85.44
2017-11-09T22:44:33.824Z,85.02
2017-11-09T23:03:46.444Z,85.64
2017-11-09T23:06:35.384Z,85.70
2017-11-09T23:09:32.536Z,85.23
2017-11-09T23:12:29.342Z,84.20
2017-11-09T23:25:16.459Z,84.43
2017-11-09T23:28:06.166Z,84.66
2017-11-09T23:47:19.252Z,85.05
2017-11-09T23:50:08.997Z,84.21
2017-11-09T23:53:07.040Z,84.39
2017-11-09T23:56:04.905Z,83.74
